Time;durP1;ratioP1;P1;durP2;ratioP2;P2;SDS_P1;SDS_P2;PMS_P1;PMS_P2;Temp;Humidity;BMP_temperature;BMP_pressure;BME280_temperature;BME280_humidity;BME280_pressure;Samples;Min_cycle;Max_cycle;Signal;HPM_P1;HPM_P2
2023/07/25 00:01:24;;;;;;;8.53;3.83;;;;;;;12.62;100.00;100523.09;5277800;28;20126;-75
2023/07/25 00:03:55;;;;;;;9.57;3.63;;;;;;;12.57;100.00;100523.25;5286581;28;20033;-76
2023/07/25 00:06:27;;;;;;;5.73;4.10;;;;;;;12.64;100.00;100525.66;5285869;28;20494;-75
2023/07/25 00:08:58;;;;;;;9.97;4.63;;;;;;;12.58;100.00;100529.31;5285781;28;20418;-74
2023/07/25 00:11:29;;;;;;;7.13;4.03;;;;;;;12.55;100.00;100526.78;5286139;28;20024;-76
2023/07/25 00:14:01;;;;;;;8.27;4.10;;;;;;;12.49;100.00;100519.06;5286094;28;20024;-75
2023/07/25 00:16:32;;;;;;;8.00;3.73;;;;;;;12.45;100.00;100518.31;5284410;28;20525;-77
2023/07/25 00:19:03;;;;;;;11.80;4.37;;;;;;;12.42;100.00;100530.59;5285903;28;20494;-76
2023/07/25 00:21:35;;;;;;;5.70;3.73;;;;;;;12.39;100.00;100523.69;5284564;28;20448;-77
2023/07/25 00:24:06;;;;;;;9.30;4.07;;;;;;;12.31;100.00;100523.00;5285735;28;20083;-76
2023/07/25 00:26:37;;;;;;;7.80;3.70;;;;;;;12.32;100.00;100522.13;5285838;28;20029;-77
2023/07/25 00:29:09;;;;;;;10.13;3.90;;;;;;;12.37;100.00;100525.47;5305337;28;20032;-76
2023/07/25 00:31:40;;;;;;;8.57;4.00;;;;;;;12.28;100.00;100510.84;5293204;28;20035;-77
2023/07/25 00:34:11;;;;;;;7.93;4.00;;;;;;;12.20;100.00;100521.53;5294455;28;20082;-76
2023/07/25 00:36:43;;;;;;;11.07;3.87;;;;;;;12.19;100.00;100516.34;5292783;28;20032;-74
2023/07/25 00:39:14;;;;;;;8.30;4.37;;;;;;;12.23;100.00;100512.72;5294428;28;20056;-75
2023/07/25 00:41:46;;;;;;;7.63;4.07;;;;;;;12.20;100.00;100524.13;5294178;28;20526;-76
2023/07/25 00:44:17;;;;;;;9.37;3.97;;;;;;;12.15;100.00;100522.50;5293690;28;20048;-73
2023/07/25 00:46:48;;;;;;;7.53;4.17;;;;;;;12.11;100.00;100526.09;5296172;28;20028;-76
2023/07/25 00:49:20;;;;;;;6.87;3.97;;;;;;;12.09;100.00;100526.16;5292403;28;20400;-75
2023/07/25 00:51:52;;;;;;;10.03;4.90;;;;;;;11.97;100.00;100526.41;5291724;28;20028;-75
2023/07/25 00:54:23;;;;;;;9.53;4.57;;;;;;;12.03;100.00;100526.28;5289915;28;20028;-75
2023/07/25 00:56:54;;;;;;;8.73;4.63;;;;;;;12.06;100.00;100515.75;5289223;28;20098;-77
2023/07/25 00:59:26;;;;;;;8.90;4.60;;;;;;;12.01;100.00;100521.09;5288812;28;20029;-76
2023/07/25 01:01:58;;;;;;;7.23;4.03;;;;;;;12.08;100.00;100529.63;5287392;28;20056;-76
2023/07/25 01:04:30;;;;;;;11.70;5.10;;;;;;;12.13;100.00;100517.31;5286204;28;20085;-76
2023/07/25 01:07:01;;;;;;;7.93;3.97;;;;;;;12.07;100.00;100521.84;5285678;28;20028;-75
2023/07/25 01:09:42;;;;;;;8.47;5.10;;;;;;;12.15;100.00;100519.91;5284646;28;20128;-75
2023/07/25 01:12:13;;;;;;;8.98;4.32;;;;;;;12.14;100.00;100518.16;5286102;28;20028;-76
2023/07/25 01:14:45;;;;;;;7.73;4.20;;;;;;;12.23;100.00;100510.13;5285268;28;20039;-76
2023/07/25 01:17:20;;;;;;;7.10;4.53;;;;;;;12.19;100.00;100506.72;5285052;28;20468;-75
2023/07/25 01:19:53;;;;;;;8.57;4.45;;;;;;;12.28;100.00;100515.25;5284981;28;20498;-76
2023/07/25 01:22:26;;;;;;;9.10;5.28;;;;;;;12.19;100.00;100526.78;5285184;28;20028;-75
2023/07/25 01:24:57;;;;;;;7.55;4.22;;;;;;;12.23;100.00;100515.34;5284984;28;20041;-76
2023/07/25 01:27:29;;;;;;;9.43;4.17;;;;;;;12.13;100.00;100508.63;5284378;28;20032;-76
2023/07/25 01:30:00;;;;;;;9.83;4.23;;;;;;;12.18;100.00;100515.44;5284829;28;20032;-77
2023/07/25 01:32:32;;;;;;;10.10;5.03;;;;;;;12.06;100.00;100512.28;5284547;28;20087;-76
2023/07/25 01:35:03;;;;;;;8.33;5.13;;;;;;;12.03;100.00;100511.44;5284554;28;20118;-77
2023/07/25 01:37:35;;;;;;;7.57;4.63;;;;;;;12.08;100.00;100508.75;5283080;28;20414;-76
2023/07/25 01:40:07;;;;;;;7.90;4.63;;;;;;;12.00;100.00;100502.84;5282411;28;20119;-76
2023/07/25 01:42:38;;;;;;;6.15;4.22;;;;;;;12.03;100.00;100506.22;5284110;28;20051;-76
2023/07/25 01:45:10;;;;;;;7.33;4.63;;;;;;;11.93;100.00;100503.84;5284270;28;20032;-76
2023/07/25 01:47:41;;;;;;;9.20;4.70;;;;;;;11.78;100.00;100495.44;5284229;28;20029;-76
2023/07/25 01:50:13;;;;;;;5.57;4.10;;;;;;;11.76;100.00;100497.22;5299689;28;20118;-75
2023/07/25 01:52:44;;;;;;;8.93;5.43;;;;;;;11.74;100.00;100496.41;5283825;28;20036;-76
2023/07/25 01:55:16;;;;;;;28.30;7.63;;;;;;;11.73;100.00;100491.22;5283920;28;20495;-75
2023/07/25 01:57:47;;;;;;;10.43;5.57;;;;;;;11.69;100.00;100490.44;5283747;28;20032;-75
2023/07/25 02:00:18;;;;;;;9.93;4.83;;;;;;;11.68;100.00;100496.53;5283920;28;20029;-76
2023/07/25 02:02:50;;;;;;;11.03;4.87;;;;;;;11.68;100.00;100493.94;5283824;28;20040;-76
2023/07/25 02:05:21;;;;;;;7.53;5.20;;;;;;;11.56;100.00;100488.97;5283564;28;20395;-76
2023/07/25 02:07:52;;;;;;;9.97;4.80;;;;;;;11.59;100.00;100487.19;5283356;28;20462;-75
2023/07/25 02:10:24;;;;;;;7.93;5.77;;;;;;;11.44;100.00;100490.09;5283302;28;20085;-76
2023/07/25 02:12:56;;;;;;;10.13;4.97;;;;;;;11.49;100.00;100481.31;5283690;28;20040;-75
2023/07/25 02:15:27;;;;;;;8.63;4.90;;;;;;;11.45;100.00;100482.25;5283316;28;20115;-76
2023/07/25 02:17:58;;;;;;;10.13;5.57;;;;;;;11.42;100.00;100484.06;5283594;28;20294;-75
2023/07/25 02:20:31;;;;;;;8.17;4.87;;;;;;;11.36;100.00;100481.56;5283572;28;20124;-76
2023/07/25 02:23:02;;;;;;;6.93;4.60;;;;;;;11.40;100.00;100488.44;5283388;28;20027;-76
2023/07/25 02:25:34;;;;;;;11.97;6.70;;;;;;;11.31;100.00;100492.09;5283532;28;20037;-75
2023/07/25 02:28:06;;;;;;;7.28;4.80;;;;;;;11.17;100.00;100484.53;5265550;28;20141;-75
2023/07/25 02:30:37;;;;;;;7.27;5.37;;;;;;;11.25;100.00;100479.19;5282271;28;20482;-76
2023/07/25 02:33:08;;;;;;;6.37;4.77;;;;;;;11.25;100.00;100485.28;5284014;28;20033;-75
2023/07/25 02:35:40;;;;;;;8.40;5.60;;;;;;;11.16;100.00;100477.63;5283522;28;20590;-76
2023/07/25 02:38:11;;;;;;;8.13;5.33;;;;;;;11.21;100.00;100483.63;5283599;28;20067;-75
2023/07/25 02:40:44;;;;;;;9.33;5.40;;;;;;;11.15;100.00;100481.13;5282842;28;20064;-76
2023/07/25 02:43:15;;;;;;;9.52;5.82;;;;;;;11.18;100.00;100480.22;5283359;28;20480;-76
2023/07/25 02:45:46;;;;;;;10.10;5.37;;;;;;;11.19;100.00;100469.75;5283290;28;20033;-76
2023/07/25 02:48:19;;;;;;;9.70;5.77;;;;;;;11.23;100.00;100481.81;5282997;28;20107;-76
2023/07/25 02:50:50;;;;;;;13.75;7.95;;;;;;;11.29;100.00;100475.63;5283166;28;20039;-77
2023/07/25 02:53:21;;;;;;;12.77;6.03;;;;;;;11.25;100.00;100484.41;5283107;28;20032;-76
2023/07/25 02:55:54;;;;;;;11.60;6.20;;;;;;;11.23;100.00;100480.97;5282942;28;20494;-76
2023/07/25 02:58:25;;;;;;;11.55;6.25;;;;;;;11.31;100.00;100481.66;5283041;28;20421;-76
2023/07/25 03:00:56;;;;;;;11.30;6.80;;;;;;;11.37;100.00;100485.91;5283083;28;20036;-75
2023/07/25 03:03:28;;;;;;;9.27;6.30;;;;;;;11.43;100.00;100485.75;5282192;28;20035;-76
2023/07/25 03:05:59;;;;;;;10.70;6.63;;;;;;;11.46;100.00;100477.88;5283008;28;20036;-75
2023/07/25 03:08:30;;;;;;;10.93;6.33;;;;;;;11.50;100.00;100476.94;5284519;28;20050;-76
2023/07/25 03:11:02;;;;;;;8.53;6.63;;;;;;;11.49;100.00;100489.13;5286868;28;20070;-76
2023/07/25 03:13:33;;;;;;;12.40;6.33;;;;;;;11.55;100.00;100484.66;5286847;28;20028;-77
2023/07/25 03:16:04;;;;;;;13.33;6.83;;;;;;;11.54;100.00;100486.41;5286905;28;20167;-76
2023/07/25 03:18:37;;;;;;;12.00;7.30;;;;;;;11.52;100.00;100479.50;5286016;28;20427;-76
2023/07/25 03:21:09;;;;;;;11.15;7.47;;;;;;;11.56;100.00;100481.13;5285889;28;20036;-76
2023/07/25 03:23:40;;;;;;;11.07;6.00;;;;;;;11.73;100.00;100475.56;5287161;28;20443;-76
2023/07/25 03:26:12;;;;;;;11.17;6.57;;;;;;;11.67;100.00;100477.41;5287117;28;20056;-76
2023/07/25 03:28:43;;;;;;;12.90;6.60;;;;;;;11.61;100.00;100480.16;5286797;28;20032;-75
2023/07/25 03:31:14;;;;;;;12.47;6.53;;;;;;;11.61;100.00;100477.56;5286692;28;20067;-76
2023/07/25 03:33:46;;;;;;;17.23;6.90;;;;;;;11.67;100.00;100472.19;5286850;28;20036;-76
2023/07/25 03:36:17;;;;;;;9.10;6.20;;;;;;;11.70;100.00;100470.41;5285544;28;20037;-76
2023/07/25 03:38:48;;;;;;;7.80;5.80;;;;;;;11.72;100.00;100474.72;5285891;28;20431;-75
2023/07/25 03:41:20;;;;;;;11.07;6.10;;;;;;;11.68;100.00;100470.44;5286655;28;20048;-75
2023/07/25 03:43:51;;;;;;;9.03;6.10;;;;;;;11.74;100.00;100472.91;5286658;28;20519;-75
2023/07/25 03:46:23;;;;;;;12.67;7.70;;;;;;;11.71;100.00;100472.13;5286569;28;20115;-75
2023/07/25 03:48:55;;;;;;;11.27;6.90;;;;;;;11.67;100.00;100477.41;5285253;28;20043;-76
2023/07/25 03:51:26;;;;;;;16.87;7.37;;;;;;;11.65;100.00;100473.97;5286196;28;20048;-76
2023/07/25 03:53:57;;;;;;;11.90;6.00;;;;;;;11.68;100.00;100471.28;5286622;28;20040;-76
2023/07/25 03:56:29;;;;;;;13.07;6.37;;;;;;;11.70;100.00;100466.03;5285177;28;20040;-76
2023/07/25 03:59:00;;;;;;;10.87;6.07;;;;;;;11.72;100.00;100484.28;5286348;28;20482;-75
2023/07/25 04:01:31;;;;;;;13.33;7.27;;;;;;;11.69;100.00;100480.00;5286459;28;20174;-76
2023/07/25 04:04:03;;;;;;;13.80;6.83;;;;;;;11.56;100.00;100484.63;5286449;28;20036;-76
2023/07/25 04:06:35;;;;;;;7.50;5.97;;;;;;;11.61;100.00;100479.31;5286170;28;20052;-76
2023/07/25 04:09:06;;;;;;;10.90;7.43;;;;;;;11.58;100.00;100477.63;5284654;28;20043;-76
2023/07/25 04:11:37;;;;;;;12.17;6.53;;;;;;;11.47;100.00;100477.84;5285860;28;20052;-75
2023/07/25 04:14:09;;;;;;;9.83;6.70;;;;;;;11.52;100.00;100479.50;5286298;28;20036;-76
2023/07/25 04:16:40;;;;;;;14.13;6.90;;;;;;;11.51;100.00;100478.63;5286219;28;20039;-75
2023/07/25 04:19:11;;;;;;;12.53;6.77;;;;;;;11.49;100.00;100481.31;5284786;28;20539;-78
2023/07/25 04:21:43;;;;;;;11.90;6.97;;;;;;;11.50;100.00;100475.16;5285316;28;20480;-76
2023/07/25 04:24:14;;;;;;;10.10;7.53;;;;;;;11.45;100.00;100478.78;5285923;28;20039;-76
2023/07/25 04:26:45;;;;;;;12.87;6.07;;;;;;;11.41;100.00;100470.13;5285851;28;20056;-75
2023/07/25 04:29:17;;;;;;;17.70;7.27;;;;;;;11.44;100.00;100477.91;5285903;28;20036;-75
2023/07/25 04:31:48;;;;;;;9.63;6.60;;;;;;;11.49;100.00;100485.63;5284407;28;20101;-75
2023/07/25 04:34:19;;;;;;;10.03;8.00;;;;;;;11.50;100.00;100479.53;5285923;28;20082;-75
2023/07/25 04:36:51;;;;;;;10.53;6.70;;;;;;;11.57;100.00;100478.50;5285771;28;20490;-76
2023/07/25 04:39:22;;;;;;;15.80;7.27;;;;;;;11.59;100.00;100488.91;5285192;28;20473;-76
2023/07/25 04:41:53;;;;;;;12.07;6.77;;;;;;;11.71;100.00;100482.56;5300826;28;20170;-76
2023/07/25 04:44:25;;;;;;;12.80;6.50;;;;;;;11.70;100.00;100479.09;5301109;28;20040;-76
2023/07/25 04:46:56;;;;;;;14.27;6.73;;;;;;;11.67;100.00;100480.03;5285127;28;20463;-76
2023/07/25 04:49:27;;;;;;;9.70;6.90;;;;;;;11.73;100.00;100486.00;5285215;28;20036;-76
2023/07/25 04:51:59;;;;;;;19.93;7.13;;;;;;;11.83;100.00;100477.06;5284687;28;20024;-76
2023/07/25 04:54:30;;;;;;;11.00;5.67;;;;;;;11.88;100.00;100484.78;5285406;28;20074;-76
2023/07/25 04:57:02;;;;;;;11.03;7.13;;;;;;;12.00;100.00;100482.78;5285213;28;20035;-76
2023/07/25 04:59:34;;;;;;;13.40;6.38;;;;;;;12.02;100.00;100473.16;5285109;28;20037;-76
2023/07/25 05:02:05;;;;;;;10.40;6.07;;;;;;;12.20;100.00;100474.50;5285008;28;20527;-76
2023/07/25 05:04:36;;;;;;;8.93;5.83;;;;;;;12.14;100.00;100474.63;5285176;28;20033;-76
2023/07/25 05:07:08;;;;;;;13.37;6.90;;;;;;;12.18;100.00;100475.41;5285099;28;20059;-77
2023/07/25 05:09:39;;;;;;;10.63;6.03;;;;;;;12.22;100.00;100482.28;5284641;28;20036;-77
2023/07/25 05:12:12;;;;;;;12.07;6.47;;;;;;;12.27;100.00;100484.75;5284520;28;20063;-76
2023/07/25 05:14:43;;;;;;;12.80;5.75;;;;;;;12.37;100.00;100488.88;5284951;28;20123;-75
2023/07/25 05:17:15;;;;;;;12.37;4.93;;;;;;;12.46;100.00;100487.78;5284932;28;20119;-75
2023/07/25 05:19:46;;;;;;;14.27;5.00;;;;;;;12.52;100.00;100492.84;5284753;28;20029;-75
2023/07/25 05:22:18;;;;;;;16.60;6.13;;;;;;;12.61;100.00;100497.00;5285018;28;20029;-76
2023/07/25 05:24:49;;;;;;;7.67;5.17;;;;;;;12.76;100.00;100497.44;5284609;28;20036;-75
2023/07/25 05:27:20;;;;;;;15.43;6.43;;;;;;;12.83;100.00;100498.16;5284615;28;20032;-76
2023/07/25 05:29:52;;;;;;;8.00;4.80;;;;;;;12.90;100.00;100496.25;5284445;28;20112;-76
2023/07/25 05:32:23;;;;;;;18.80;6.20;;;;;;;12.98;100.00;100501.28;5284272;28;20039;-76
2023/07/25 05:34:55;;;;;;;9.47;5.70;;;;;;;13.04;100.00;100501.06;5284181;28;20105;-76
2023/07/25 05:37:34;;;;;;;11.67;4.30;;;;;;;13.02;100.00;100505.50;5284117;28;20056;-76
2023/07/25 05:40:06;;;;;;;13.07;5.28;;;;;;;12.94;100.00;100508.31;5283976;28;20087;-76
2023/07/25 05:42:38;;;;;;;11.15;4.20;;;;;;;12.97;100.00;100504.78;5284463;28;20048;-76
2023/07/25 05:45:09;;;;;;;12.60;5.40;;;;;;;12.98;100.00;100512.59;5284219;28;20052;-77
2023/07/25 05:47:41;;;;;;;9.67;4.47;;;;;;;13.09;100.00;100507.91;5282729;28;20020;-76
2023/07/25 05:50:13;;;;;;;12.80;5.10;;;;;;;13.13;100.00;100521.75;5285531;28;20297;-76
2023/07/25 05:52:44;;;;;;;8.48;4.78;;;;;;;13.26;100.00;100517.88;5286402;28;20098;-76
2023/07/25 05:55:16;;;;;;;13.63;4.17;;;;;;;13.42;100.00;100522.75;5285179;28;20460;-74
2023/07/25 05:57:47;;;;;;;8.33;3.57;;;;;;;13.47;100.00;100526.06;5284092;28;20052;-74
2023/07/25 06:00:19;;;;;;;16.07;4.43;;;;;;;13.54;100.00;100522.41;5299600;28;20048;-76
2023/07/25 06:02:51;;;;;;;8.13;4.77;;;;;;;13.63;100.00;100519.47;5283571;28;20361;-76
2023/07/25 06:05:23;;;;;;;;;;;;;;;13.91;100.00;100513.44;5283413;28;20043;-76
2023/07/25 06:07:54;;;;;;;8.73;3.90;;;;;;;13.79;100.00;100509.41;5283580;28;20364;-76
2023/07/25 06:10:25;;;;;;;9.37;3.87;;;;;;;13.90;100.00;100510.84;5283559;28;20037;-76
2023/07/25 06:12:57;;;;;;;8.93;4.10;;;;;;;13.93;100.00;100508.13;5282466;28;20039;-76
2023/07/25 06:15:29;;;;;;;11.07;3.67;;;;;;;13.89;100.00;100517.84;5283873;28;20029;-77
2023/07/25 06:18:01;;;;;;;10.60;3.65;;;;;;;13.76;98.37;100513.88;5283539;28;20498;-76
2023/07/25 06:20:33;;;;;;;8.57;3.70;;;;;;;13.83;100.00;100513.66;5283866;28;20032;-75
2023/07/25 06:23:05;;;;;;;7.67;3.93;;;;;;;13.90;99.85;100513.47;5283555;28;20426;-77
2023/07/25 06:25:36;;;;;;;10.13;3.90;;;;;;;13.99;100.00;100518.41;5283546;28;20522;-76
2023/07/25 06:28:07;;;;;;;7.33;3.40;;;;;;;13.97;97.88;100531.56;5283441;28;20119;-76
2023/07/25 06:30:39;;;;;;;8.80;3.90;;;;;;;14.17;99.15;100533.56;5283410;28;20082;-77
2023/07/25 06:33:14;;;;;;;10.93;3.67;;;;;;;14.30;97.45;100528.78;5283432;28;20032;-76
2023/07/25 06:35:45;;;;;;;7.78;3.72;;;;;;;14.38;95.77;100525.91;5283306;28;20379;-76
2023/07/25 06:38:16;;;;;;;9.23;3.30;;;;;;;14.49;96.77;100526.44;5282907;28;20036;-76
2023/07/25 06:40:48;;;;;;;8.93;3.90;;;;;;;14.58;95.35;100526.09;5282548;28;20060;-76
2023/07/25 06:43:19;;;;;;;6.97;3.50;;;;;;;14.58;95.67;100533.97;5283243;28;20372;-76
2023/07/25 06:45:51;;;;;;;10.07;4.90;;;;;;;14.62;94.60;100532.16;5283454;28;20039;-76
2023/07/25 06:48:23;;;;;;;10.70;3.92;;;;;;;14.66;94.54;100532.91;5283205;28;20367;-76
2023/07/25 06:50:54;;;;;;;8.30;3.90;;;;;;;14.77;96.20;100530.78;5282899;28;20025;-76
2023/07/25 06:53:26;;;;;;;9.20;4.43;;;;;;;14.86;94.86;100524.34;5283632;28;20079;-76
2023/07/25 06:55:57;;;;;;;7.93;4.27;;;;;;;15.00;94.24;100523.84;5283432;28;20456;-76
2023/07/25 06:58:28;;;;;;;9.13;3.80;;;;;;;15.25;93.40;100534.34;5281828;28;20043;-76
2023/07/25 07:01:00;;;;;;;10.77;3.70;;;;;;;15.32;93.50;100525.31;5283247;28;20051;-77
2023/07/25 07:03:31;;;;;;;10.83;3.53;;;;;;;15.36;92.04;100524.31;5281473;28;20361;-76
2023/07/25 07:06:03;;;;;;;10.57;4.13;;;;;;;15.40;93.49;100527.66;5283484;28;20052;-76
2023/07/25 07:08:34;;;;;;;9.70;3.77;;;;;;;15.38;91.57;100530.34;5283051;28;20525;-76
2023/07/25 07:11:05;;;;;;;11.10;3.60;;;;;;;15.52;90.73;100535.09;5282700;28;20083;-77
2023/07/25 07:13:37;;;;;;;7.23;3.30;;;;;;;15.90;90.58;100542.47;5281744;28;20495;-76
2023/07/25 07:16:09;;;;;;;15.47;3.90;;;;;;;16.19;88.09;100543.94;5283112;28;20060;-76
2023/07/25 07:18:40;;;;;;;9.45;3.00;;;;;;;16.57;86.90;100545.00;5282944;28;20029;-76
2023/07/25 07:21:12;;;;;;;9.50;3.20;;;;;;;16.86;85.55;100550.88;5283081;28;20037;-76
2023/07/25 07:23:43;;;;;;;10.97;3.77;;;;;;;16.83;82.10;100558.00;5282840;28;20033;-76
2023/07/25 07:26:15;;;;;;;9.50;2.93;;;;;;;16.70;83.88;100553.25;5282703;28;20033;-77
2023/07/25 07:28:46;;;;;;;7.77;2.50;;;;;;;16.69;81.42;100550.69;5282623;28;20361;-76
2023/07/25 07:31:23;;;;;;;7.67;2.63;;;;;;;16.51;80.47;100547.03;5282922;28;20070;-76
2023/07/25 07:34:11;;;;;;;8.30;3.20;;;;;;;16.53;83.45;100543.41;5285366;28;20464;-76
2023/07/25 07:36:43;;;;;;;8.63;2.83;;;;;;;16.52;84.04;100548.78;5294706;28;20035;-77
2023/07/25 07:39:14;;;;;;;10.27;2.75;;;;;;;16.57;83.74;100545.00;5293456;28;20414;-76
2023/07/25 07:41:46;;;;;;;10.30;2.37;;;;;;;16.54;81.28;100552.19;5292777;28;20060;-77
2023/07/25 07:44:17;;;;;;;7.53;2.67;;;;;;;16.53;81.87;100558.34;5291860;28;20044;-77
2023/07/25 07:46:48;;;;;;;6.20;2.37;;;;;;;16.40;81.44;100558.00;5289767;28;20074;-76
2023/07/25 07:49:20;;;;;;;10.50;2.50;;;;;;;16.41;82.88;100565.84;5286467;28;20040;-76
2023/07/25 07:51:51;;;;;;;9.57;2.90;;;;;;;16.27;81.93;100560.28;5283892;28;20167;-77
2023/07/25 07:54:23;;;;;;;6.68;2.75;;;;;;;16.20;82.24;100566.72;5285615;28;20039;-78
2023/07/25 07:56:54;;;;;;;12.27;2.77;;;;;;;15.93;82.69;100574.75;5287966;28;20035;-77
2023/07/25 07:59:25;;;;;;;5.80;2.43;;;;;;;15.81;83.02;100569.94;5293361;28;20119;-77
2023/07/25 08:01:57;;;;;;;8.47;2.77;;;;;;;15.81;81.93;100576.09;5297869;28;20032;-77
2023/07/25 08:04:28;;;;;;;7.00;2.00;;;;;;;16.01;80.73;100571.81;5291820;28;20056;-75
2023/07/25 08:06:59;;;;;;;9.07;2.20;;;;;;;15.92;77.70;100583.53;5288512;28;20043;-76
2023/07/25 08:09:31;;;;;;;8.07;2.43;;;;;;;16.07;76.56;100579.47;5287097;28;20430;-77
2023/07/25 08:12:03;;;;;;;6.77;2.33;;;;;;;16.23;76.10;100588.47;5287830;28;20040;-77
2023/07/25 08:14:34;;;;;;;6.72;2.13;;;;;;;16.54;76.83;100587.25;5287271;28;20458;-77
2023/07/25 08:17:06;;;;;;;10.83;2.23;;;;;;;16.62;74.29;100586.09;5285639;28;20078;-78
2023/07/25 08:19:37;;;;;;;6.37;2.20;;;;;;;17.00;76.10;100583.63;5287625;28;20032;-78
2023/07/25 08:22:11;;;;;;;6.43;2.50;;;;;;;17.15;72.01;100585.63;5286620;28;20064;-77
2023/07/25 08:24:43;;;;;;;5.18;2.03;;;;;;;17.10;70.35;100584.97;5286928;28;20058;-78
2023/07/25 08:27:14;;;;;;;6.60;2.00;;;;;;;17.18;72.36;100587.25;5285578;28;20032;-77
2023/07/25 08:29:46;;;;;;;5.13;1.65;;;;;;;17.10;71.16;100584.97;5286824;28;20093;-77
2023/07/25 08:32:17;;;;;;;8.70;3.03;;;;;;;16.94;71.23;100590.03;5286721;28;20047;-77
2023/07/25 08:34:49;;;;;;;6.97;2.23;;;;;;;16.94;70.64;100595.31;5286380;28;20456;-77
2023/07/25 08:37:20;;;;;;;7.63;2.33;;;;;;;16.71;70.54;100589.19;5286268;28;20059;-77
2023/07/25 08:39:52;;;;;;;4.90;1.87;;;;;;;16.77;70.36;100596.81;5285997;28;20021;-77
2023/07/25 08:42:31;;;;;;;4.87;1.67;;;;;;;17.10;69.76;100600.78;5285262;28;20052;-77
2023/07/25 08:45:06;;;;;;;6.28;2.92;;;;;;;17.07;69.31;100604.38;5285911;28;20464;-77
2023/07/25 08:47:41;;;;;;;4.57;1.90;;;;;;;17.08;68.82;100603.47;5285741;28;20020;-77
2023/07/25 08:50:15;;;;;;;5.88;1.83;;;;;;;17.42;69.54;100609.03;5285842;28;20463;-77
2023/07/25 08:52:51;;;;;;;6.03;2.00;;;;;;;17.37;66.23;100609.25;5285383;28;20127;-76
2023/07/25 08:55:23;;;;;;;9.80;1.95;;;;;;;17.57;67.05;100607.50;5284516;28;20043;-77
2023/07/25 08:57:55;;;;;;;8.13;2.83;;;;;;;17.53;67.55;100612.03;5285792;28;20531;-77
2023/07/25 09:00:28;;;;;;;8.88;2.33;;;;;;;17.64;66.39;100616.84;5285560;28;20038;-76
2023/07/25 09:02:59;;;;;;;9.02;1.85;;;;;;;17.78;65.98;100617.06;5285612;28;20043;-77
2023/07/25 09:05:31;;;;;;;7.93;2.50;;;;;;;17.89;65.63;100619.25;5284888;28;20024;-77
2023/07/25 09:08:02;;;;;;;8.03;2.17;;;;;;;17.96;64.02;100619.81;5283994;28;20025;-77
2023/07/25 09:10:34;;;;;;;7.17;2.07;;;;;;;18.27;63.51;100619.22;5284677;28;20032;-77
2023/07/25 09:13:06;;;;;;;3.58;1.63;;;;;;;18.59;61.74;100615.06;5283632;28;20111;-77
2023/07/25 09:15:39;;;;;;;5.90;1.90;;;;;;;18.87;61.60;100605.78;5284937;28;20037;-77
2023/07/25 09:18:10;;;;;;;7.32;2.00;;;;;;;19.19;60.29;100605.94;5284921;28;20028;-77
2023/07/25 09:20:42;;;;;;;7.83;1.80;;;;;;;19.51;59.60;100616.59;5284543;28;20419;-77
2023/07/25 09:23:21;;;;;;;7.30;2.10;;;;;;;19.57;61.80;100621.56;5284749;28;20032;-77
2023/07/25 09:26:08;;;;;;;6.88;2.30;;;;;;;19.77;58.45;100617.03;5284649;28;20037;-77
2023/07/25 09:28:54;;;;;;;7.20;2.35;;;;;;;19.94;58.70;100603.75;5284704;28;20103;-78
2023/07/25 09:31:27;;;;;;;7.53;2.28;;;;;;;20.01;56.00;100612.19;5284600;28;20031;-77
2023/07/25 09:33:58;;;;;;;6.90;1.85;;;;;;;20.08;55.21;100615.38;5284334;28;20029;-77
2023/07/25 09:36:30;;;;;;;7.43;2.37;;;;;;;19.55;50.86;100612.03;5284440;28;20123;-77
2023/07/25 09:39:02;;;;;;;6.50;2.05;;;;;;;20.15;56.89;100620.22;5284028;28;20395;-77
2023/07/25 09:41:35;;;;;;;7.00;1.70;;;;;;;20.42;51.53;100608.19;5283948;28;20124;-76
2023/07/25 09:44:06;;;;;;;5.28;1.92;;;;;;;20.30;50.83;100618.53;5284229;28;20031;-77
2023/07/25 09:46:38;;;;;;;5.43;2.43;;;;;;;19.87;53.04;100620.91;5284257;28;20033;-77
2023/07/25 09:49:09;;;;;;;5.70;1.80;;;;;;;19.67;52.03;100628.09;5284187;28;20484;-77
2023/07/25 09:51:56;;;;;;;6.10;1.63;;;;;;;20.33;54.49;100625.44;5284150;28;20040;-77
2023/07/25 09:54:28;;;;;;;7.32;1.75;;;;;;;20.60;52.27;100617.72;5283860;28;20099;-78
2023/07/25 09:56:59;;;;;;;6.77;2.40;;;;;;;20.48;50.16;100623.72;5283792;28;20112;-77
2023/07/25 09:59:31;;;;;;;5.53;2.00;;;;;;;20.92;49.65;100615.88;5284027;28;20115;-78
2023/07/25 10:02:04;;;;;;;5.45;1.80;;;;;;;20.72;47.55;100619.69;5284143;28;20033;-75
2023/07/25 10:04:38;;;;;;;4.38;1.92;;;;;;;20.90;49.58;100616.94;5283954;28;20173;-77
2023/07/25 10:07:10;;;;;;;9.20;2.20;;;;;;;20.42;53.34;100618.78;5283931;28;20098;-77
2023/07/25 10:09:44;;;;;;;4.83;1.73;;;;;;;20.09;53.49;100619.72;5283473;28;20040;-77
2023/07/25 10:12:15;;;;;;;7.35;2.08;;;;;;;19.55;54.21;100612.03;5283639;28;20103;-77
2023/07/25 10:14:47;;;;;;;4.83;1.67;;;;;;;19.43;56.00;100616.16;5282266;28;20634;-76
2023/07/25 10:17:18;;;;;;;6.97;1.93;;;;;;;19.21;57.31;100614.63;5283786;28;20051;-77
2023/07/25 10:19:55;;;;;;;4.37;1.73;;;;;;;19.00;58.23;100621.88;5283747;28;20064;-77
2023/07/25 10:22:37;;;;;;;6.60;1.58;;;;;;;18.83;57.11;100630.59;5283452;28;20145;-77
2023/07/25 10:25:18;;;;;;;5.40;1.70;;;;;;;19.99;56.36;100630.81;5283094;28;20023;-77
2023/07/25 10:27:54;;;;;;;7.95;1.70;;;;;;;22.46;49.79;100624.16;5283482;28;20031;-77
2023/07/25 10:30:45;;;;;;;5.22;1.58;;;;;;;24.03;44.08;100618.75;5283529;28;20028;-77
2023/07/25 10:33:18;;;;;;;4.43;1.58;;;;;;;25.55;38.36;100624.38;5281838;28;20052;-77
2023/07/25 10:35:54;;;;;;;7.45;2.08;;;;;;;25.36;36.46;100616.06;5282163;28;20037;-78
2023/07/25 10:38:33;;;;;;;4.25;1.77;;;;;;;26.31;39.86;100623.72;5283343;28;20388;-77
2023/07/25 10:41:15;;;;;;;4.22;2.15;;;;;;;27.13;35.71;100609.75;5282573;28;20122;-77
2023/07/25 10:43:53;;;;;;;4.82;2.50;;;;;;;27.20;34.84;100607.41;5283355;28;20033;-76
2023/07/25 10:46:29;;;;;;;6.10;2.22;;;;;;;24.66;38.66;100621.31;5282371;28;20052;-77
2023/07/25 10:49:15;;;;;;;5.80;1.63;;;;;;;23.36;42.32;100613.75;5283636;28;20463;-77
2023/07/25 10:51:48;;;;;;;4.47;1.63;;;;;;;21.92;44.61;100618.75;5283241;28;20456;-75
2023/07/25 10:54:22;;;;;;;7.97;2.25;;;;;;;22.26;44.54;100621.91;5283122;28;20353;-77
2023/07/25 10:57:20;;;;;;;5.50;1.90;;;;;;;24.38;39.22;100620.69;5283124;28;20062;-76
2023/07/25 11:00:04;;;;;;;7.60;1.88;;;;;;;25.77;38.87;100618.16;5283505;28;20029;-76
2023/07/25 11:02:41;;;;;;;3.03;1.40;;;;;;;26.88;33.48;100619.00;5282008;28;20037;-78
2023/07/25 11:05:12;;;;;;;4.78;1.55;;;;;;;26.91;32.37;100608.91;5283409;28;20082;-78
2023/07/25 11:07:46;;;;;;;3.60;1.50;;;;;;;26.42;33.41;100613.00;5284368;28;20467;-78
2023/07/25 11:10:23;;;;;;;4.00;1.50;;;;;;;25.66;34.58;100605.69;5282917;28;20819;-76
2023/07/25 11:12:58;;;;;;;3.80;1.58;;;;;;;26.84;32.25;100609.53;5283393;28;20151;-77
2023/07/25 11:15:30;;;;;;;5.55;1.90;;;;;;;26.48;34.01;100608.94;5283017;28;20419;-78
2023/07/25 11:18:05;;;;;;;;;;;;;;;26.75;35.86;100613.84;5283557;28;20033;-77
2023/07/25 11:20:36;;;;;;;10.15;3.45;;;;;;;23.11;40.10;100611.91;5283360;28;19912;-77
2023/07/25 11:23:08;;;;;;;5.28;1.92;;;;;;;22.24;42.32;100616.69;5282466;28;20107;-77
2023/07/25 11:25:39;;;;;;;6.88;2.20;;;;;;;22.03;43.70;100618.91;5283434;28;20365;-77
2023/07/25 11:28:11;;;;;;;5.60;1.52;;;;;;;21.65;44.70;100615.06;5283339;28;20032;-77
2023/07/25 11:30:43;;;;;;;8.70;2.10;;;;;;;21.54;46.29;100616.66;5286621;28;20025;-76
2023/07/25 11:33:15;;;;;;;8.43;2.25;;;;;;;22.13;44.38;100619.19;5287035;28;20103;-77
2023/07/25 11:35:54;;;;;;;4.73;1.53;;;;;;;23.88;43.97;100614.56;5286024;28;20143;-77
2023/07/25 11:38:25;;;;;;;5.97;1.60;;;;;;;25.44;37.10;100611.03;5287031;28;20067;-77
2023/07/25 11:40:59;;;;;;;5.00;1.97;;;;;;;26.75;32.21;100609.34;5286216;28;20048;-77
2023/07/25 11:43:32;;;;;;;5.13;1.60;;;;;;;27.61;29.60;100614.56;5286821;28;20033;-78